<?xml version="1.0" encoding="utf-8"?>
<gpx xmlns:xsi="http://www.w3.org/2001/XMLSchema-instance" xmlns:xsd="http://www.w3.org/2001/XMLSchema" version="1.1" creator="Shapelink.com" xmlns="http://www.topografix.com/GPX/1/1" xmlns:gpxtpx="http://www.garmin.com/xmlschemas/TrackPointExtension/v1">
  <metadata>
    <name>Sykling 3.86 km, 2012-04-16</name>
    <desc></desc>
    <author><name>Mikael Blom</name></author> 
    <time>2012-04-16T18:23:25Z</time>
  </metadata>
  <trk>
    <name>Sykling 3.86 km, 2012-04-16</name>
    <trkseg>
      <trkpt lat="59.9603323" lon="17.717831">
        <ele>45.7999</ele>
        <time>2012-04-16T18:23:25Z</time>
      </trkpt>
      <trkpt lat="59.9603747" lon="17.7174994">
        <ele>46.2806</ele>
        <time>2012-04-16T18:23:29Z</time>
      </trkpt>
      <trkpt lat="59.9603303" lon="17.7170688">
        <ele>42.916</ele>
        <time>2012-04-16T18:23:33Z</time>
      </trkpt>
      <trkpt lat="59.9601381" lon="17.7165277">
        <ele>42.4354</ele>
        <time>2012-04-16T18:23:38Z</time>
      </trkpt>
      <trkpt lat="59.959754" lon="17.7157754">
        <ele>44.8386</ele>
        <time>2012-04-16T18:23:46Z</time>
      </trkpt>
      <trkpt lat="59.9596588" lon="17.715421">
        <ele>45.3192</ele>
        <time>2012-04-16T18:23:50Z</time>
      </trkpt>
      <trkpt lat="59.9597314" lon="17.7151786">
        <ele>45.3192</ele>
        <time>2012-04-16T18:23:53Z</time>
      </trkpt>
      <trkpt lat="59.960111" lon="17.7145266">
        <ele>44.8386</ele>
        <time>2012-04-16T18:24:02Z</time>
      </trkpt>
      <trkpt lat="59.9604517" lon="17.7139649">
        <ele>40.9934</ele>
        <time>2012-04-16T18:24:09Z</time>
      </trkpt>
      <trkpt lat="59.9605362" lon="17.7138173">
        <ele>40.0321</ele>
        <time>2012-04-16T18:24:11Z</time>
      </trkpt>
      <trkpt lat="59.9605753" lon="17.7134607">
        <ele>37.6287</ele>
        <time>2012-04-16T18:24:15Z</time>
      </trkpt>
      <trkpt lat="59.960427" lon="17.7129907">
        <ele>35.7061</ele>
        <time>2012-04-16T18:24:19Z</time>
      </trkpt>
      <trkpt lat="59.9603918" lon="17.7125514">
        <ele>34.2642</ele>
        <time>2012-04-16T18:24:22Z</time>
      </trkpt>
      <trkpt lat="59.9604284" lon="17.7120889">
        <ele>33.3029</ele>
        <time>2012-04-16T18:24:25Z</time>
      </trkpt>
      <trkpt lat="59.960473" lon="17.7117081">
        <ele>33.3029</ele>
        <time>2012-04-16T18:24:28Z</time>
      </trkpt>
      <trkpt lat="59.9605902" lon="17.7114857">
        <ele>32.3416</ele>
        <time>2012-04-16T18:24:32Z</time>
      </trkpt>
      <trkpt lat="59.9606279" lon="17.7114994">
        <ele>31.8607</ele>
        <time>2012-04-16T18:24:33Z</time>
      </trkpt>
      <trkpt lat="59.9608637" lon="17.7116312">
        <ele>31.3801</ele>
        <time>2012-04-16T18:24:38Z</time>
      </trkpt>
      <trkpt lat="59.9609563" lon="17.711709">
        <ele>30.8995</ele>
        <time>2012-04-16T18:24:40Z</time>
      </trkpt>
      <trkpt lat="59.9611428" lon="17.7119531">
        <ele>31.8607</ele>
        <time>2012-04-16T18:24:45Z</time>
      </trkpt>
      <trkpt lat="59.9612984" lon="17.7122028">
        <ele>31.3801</ele>
        <time>2012-04-16T18:24:50Z</time>
      </trkpt>
      <trkpt lat="59.9615289" lon="17.7125355">
        <ele>32.3416</ele>
        <time>2012-04-16T18:24:58Z</time>
      </trkpt>
      <trkpt lat="59.9617278" lon="17.7128051">
        <ele>33.7834</ele>
        <time>2012-04-16T18:25:04Z</time>
      </trkpt>
      <trkpt lat="59.9618545" lon="17.7129783">
        <ele>33.3029</ele>
        <time>2012-04-16T18:25:09Z</time>
      </trkpt>
      <trkpt lat="59.962006" lon="17.7132563">
        <ele>33.3029</ele>
        <time>2012-04-16T18:25:16Z</time>
      </trkpt>
      <trkpt lat="59.9621237" lon="17.7133891">
        <ele>34.2642</ele>
        <time>2012-04-16T18:25:20Z</time>
      </trkpt>
      <trkpt lat="59.9622421" lon="17.7135305">
        <ele>36.6675</ele>
        <time>2012-04-16T18:25:24Z</time>
      </trkpt>
      <trkpt lat="59.9624261" lon="17.7134515">
        <ele>39.0707</ele>
        <time>2012-04-16T18:25:30Z</time>
      </trkpt>
      <trkpt lat="59.9624638" lon="17.7134173">
        <ele>39.5513</ele>
        <time>2012-04-16T18:25:31Z</time>
      </trkpt>
      <trkpt lat="59.9626764" lon="17.7131843">
        <ele>40.0321</ele>
        <time>2012-04-16T18:25:36Z</time>
      </trkpt>
      <trkpt lat="59.9630175" lon="17.7127197">
        <ele>37.6287</ele>
        <time>2012-04-16T18:25:42Z</time>
      </trkpt>
      <trkpt lat="59.9631539" lon="17.7125929">
        <ele>36.1868</ele>
        <time>2012-04-16T18:25:44Z</time>
      </trkpt>
      <trkpt lat="59.9634154" lon="17.7126453">
        <ele>32.3416</ele>
        <time>2012-04-16T18:25:48Z</time>
      </trkpt>
      <trkpt lat="59.9636687" lon="17.7126807">
        <ele>30.4188</ele>
        <time>2012-04-16T18:25:53Z</time>
      </trkpt>
      <trkpt lat="59.9636657" lon="17.7125075">
        <ele>28.9769</ele>
        <time>2012-04-16T18:25:56Z</time>
      </trkpt>
      <trkpt lat="59.9636061" lon="17.712021">
        <ele>25.1317</ele>
        <time>2012-04-16T18:26:01Z</time>
      </trkpt>
      <trkpt lat="59.9636128" lon="17.7115532">
        <ele>25.1317</ele>
        <time>2012-04-16T18:26:04Z</time>
      </trkpt>
      <trkpt lat="59.9635242" lon="17.7111811">
        <ele>25.6123</ele>
        <time>2012-04-16T18:26:08Z</time>
      </trkpt>
      <trkpt lat="59.9634051" lon="17.7109133">
        <ele>27.5349</ele>
        <time>2012-04-16T18:26:12Z</time>
      </trkpt>
      <trkpt lat="59.9634334" lon="17.7106507">
        <ele>28.4962</ele>
        <time>2012-04-16T18:26:15Z</time>
      </trkpt>
      <trkpt lat="59.963565" lon="17.7103638">
        <ele>29.4575</ele>
        <time>2012-04-16T18:26:19Z</time>
      </trkpt>
      <trkpt lat="59.9636387" lon="17.7102423">
        <ele>29.4575</ele>
        <time>2012-04-16T18:26:21Z</time>
      </trkpt>
      <trkpt lat="59.9638002" lon="17.7102251">
        <ele>28.9769</ele>
        <time>2012-04-16T18:26:25Z</time>
      </trkpt>
      <trkpt lat="59.9638277" lon="17.7102877">
        <ele>28.9769</ele>
        <time>2012-04-16T18:26:26Z</time>
      </trkpt>
      <trkpt lat="59.9639417" lon="17.7106586">
        <ele>28.0155</ele>
        <time>2012-04-16T18:26:31Z</time>
      </trkpt>
      <trkpt lat="59.9640325" lon="17.7108823">
        <ele>28.0155</ele>
        <time>2012-04-16T18:26:34Z</time>
      </trkpt>
      <trkpt lat="59.9642028" lon="17.7111005">
        <ele>27.5349</ele>
        <time>2012-04-16T18:26:38Z</time>
      </trkpt>
      <trkpt lat="59.9646357" lon="17.7115672">
        <ele>28.0155</ele>
        <time>2012-04-16T18:26:47Z</time>
      </trkpt>
      <trkpt lat="59.9649959" lon="17.711875">
        <ele>28.4962</ele>
        <time>2012-04-16T18:26:54Z</time>
      </trkpt>
      <trkpt lat="59.9653749" lon="17.7121876">
        <ele>28.4962</ele>
        <time>2012-04-16T18:27:02Z</time>
      </trkpt>
      <trkpt lat="59.9657185" lon="17.7124634">
        <ele>28.4962</ele>
        <time>2012-04-16T18:27:09Z</time>
      </trkpt>
      <trkpt lat="59.9658832" lon="17.7126165">
        <ele>28.0155</ele>
        <time>2012-04-16T18:27:13Z</time>
      </trkpt>
      <trkpt lat="59.9661019" lon="17.712614">
        <ele>28.0155</ele>
        <time>2012-04-16T18:27:18Z</time>
      </trkpt>
      <trkpt lat="59.9663954" lon="17.7121114">
        <ele>28.0155</ele>
        <time>2012-04-16T18:27:25Z</time>
      </trkpt>
      <trkpt lat="59.9665575" lon="17.7118442">
        <ele>28.9769</ele>
        <time>2012-04-16T18:27:29Z</time>
      </trkpt>
      <trkpt lat="59.9666976" lon="17.7117889">
        <ele>28.9769</ele>
        <time>2012-04-16T18:27:33Z</time>
      </trkpt>
      <trkpt lat="59.9667453" lon="17.7118703">
        <ele>28.9769</ele>
        <time>2012-04-16T18:27:35Z</time>
      </trkpt>
      <trkpt lat="59.9669244" lon="17.712398">
        <ele>28.9769</ele>
        <time>2012-04-16T18:27:43Z</time>
      </trkpt>
      <trkpt lat="59.967061" lon="17.7130125">
        <ele>28.4962</ele>
        <time>2012-04-16T18:27:50Z</time>
      </trkpt>
      <trkpt lat="59.9672016" lon="17.7137851">
        <ele>27.0543</ele>
        <time>2012-04-16T18:27:58Z</time>
      </trkpt>
      <trkpt lat="59.967314" lon="17.7145717">
        <ele>24.1703</ele>
        <time>2012-04-16T18:28:05Z</time>
      </trkpt>
      <trkpt lat="59.9673974" lon="17.7153212">
        <ele>21.767</ele>
        <time>2012-04-16T18:28:11Z</time>
      </trkpt>
      <trkpt lat="59.967506" lon="17.7158599">
        <ele>23.209</ele>
        <time>2012-04-16T18:28:17Z</time>
      </trkpt>
      <trkpt lat="59.967701" lon="17.7163928">
        <ele>26.5736</ele>
        <time>2012-04-16T18:28:25Z</time>
      </trkpt>
      <trkpt lat="59.9677776" lon="17.7165684">
        <ele>27.5349</ele>
        <time>2012-04-16T18:28:28Z</time>
      </trkpt>
      <trkpt lat="59.9680724" lon="17.717003">
        <ele>29.9381</ele>
        <time>2012-04-16T18:28:38Z</time>
      </trkpt>
      <trkpt lat="59.9683595" lon="17.7172659">
        <ele>31.8607</ele>
        <time>2012-04-16T18:28:46Z</time>
      </trkpt>
      <trkpt lat="59.9687477" lon="17.717447">
        <ele>33.7834</ele>
        <time>2012-04-16T18:28:55Z</time>
      </trkpt>
      <trkpt lat="59.968967" lon="17.7174167">
        <ele>33.7834</ele>
        <time>2012-04-16T18:29:00Z</time>
      </trkpt>
      <trkpt lat="59.9690597" lon="17.7174249">
        <ele>33.7834</ele>
        <time>2012-04-16T18:29:02Z</time>
      </trkpt>
      <trkpt lat="59.9694635" lon="17.7176066">
        <ele>33.3029</ele>
        <time>2012-04-16T18:29:10Z</time>
      </trkpt>
      <trkpt lat="59.9698584" lon="17.7178919">
        <ele>32.8223</ele>
        <time>2012-04-16T18:29:18Z</time>
      </trkpt>
      <trkpt lat="59.9703069" lon="17.7182949">
        <ele>32.8223</ele>
        <time>2012-04-16T18:29:27Z</time>
      </trkpt>
      <trkpt lat="59.970829" lon="17.7187699">
        <ele>32.8223</ele>
        <time>2012-04-16T18:29:38Z</time>
      </trkpt>
      <trkpt lat="59.9713014" lon="17.7191999">
        <ele>32.3416</ele>
        <time>2012-04-16T18:29:48Z</time>
      </trkpt>
      <trkpt lat="59.9715881" lon="17.7194636">
        <ele>31.8607</ele>
        <time>2012-04-16T18:29:54Z</time>
      </trkpt>
      <trkpt lat="59.9720192" lon="17.7198594">
        <ele>31.3801</ele>
        <time>2012-04-16T18:30:03Z</time>
      </trkpt>
      <trkpt lat="59.9725196" lon="17.7203111">
        <ele>31.3801</ele>
        <time>2012-04-16T18:30:13Z</time>
      </trkpt>
      <trkpt lat="59.9729128" lon="17.7207164">
        <ele>30.8995</ele>
        <time>2012-04-16T18:30:21Z</time>
      </trkpt>
      <trkpt lat="59.9732324" lon="17.7211819">
        <ele>30.4188</ele>
        <time>2012-04-16T18:30:29Z</time>
      </trkpt>
      <trkpt lat="59.973526" lon="17.7217664">
        <ele>29.9381</ele>
        <time>2012-04-16T18:30:37Z</time>
      </trkpt>
      <trkpt lat="59.9738053" lon="17.7225635">
        <ele>29.4575</ele>
        <time>2012-04-16T18:30:46Z</time>
      </trkpt>
      <trkpt lat="59.9740247" lon="17.7235416">
        <ele>29.4575</ele>
        <time>2012-04-16T18:30:56Z</time>
      </trkpt>
      <trkpt lat="59.9741783" lon="17.724534">
        <ele>29.4575</ele>
        <time>2012-04-16T18:31:06Z</time>
      </trkpt>
      <trkpt lat="59.9743211" lon="17.7256702">
        <ele>28.9769</ele>
        <time>2012-04-16T18:31:17Z</time>
      </trkpt>
      <trkpt lat="59.9743683" lon="17.7266158">
        <ele>28.0155</ele>
        <time>2012-04-16T18:31:26Z</time>
      </trkpt>
      <trkpt lat="59.974392" lon="17.7276267">
        <ele>27.0543</ele>
        <time>2012-04-16T18:31:35Z</time>
      </trkpt>
      <trkpt lat="59.9744169" lon="17.7287851">
        <ele>27.5349</ele>
        <time>2012-04-16T18:31:45Z</time>
      </trkpt>
      <trkpt lat="59.9744237" lon="17.7296587">
        <ele>28.0155</ele>
        <time>2012-04-16T18:31:54Z</time>
      </trkpt>
      <trkpt lat="59.9743579" lon="17.7304767">
        <ele>28.4962</ele>
        <time>2012-04-16T18:32:03Z</time>
      </trkpt>
      <trkpt lat="59.9743018" lon="17.7313993">
        <ele>28.9769</ele>
        <time>2012-04-16T18:32:13Z</time>
      </trkpt>
      <trkpt lat="59.9743066" lon="17.7323715">
        <ele>28.9769</ele>
        <time>2012-04-16T18:32:23Z</time>
      </trkpt>
      <trkpt lat="59.9743113" lon="17.733039">
        <ele>28.9769</ele>
        <time>2012-04-16T18:32:30Z</time>
      </trkpt>
      <trkpt lat="59.9742748" lon="17.733915">
        <ele>28.9769</ele>
        <time>2012-04-16T18:32:39Z</time>
      </trkpt>
      <trkpt lat="59.9742601" lon="17.7347283">
        <ele>28.9769</ele>
        <time>2012-04-16T18:32:47Z</time>
      </trkpt>
      <trkpt lat="59.9742657" lon="17.7348272">
        <ele>28.9769</ele>
        <time>2012-04-16T18:32:48Z</time>
      </trkpt>
      <trkpt lat="59.974302" lon="17.7353253">
        <ele>29.4575</ele>
        <time>2012-04-16T18:32:54Z</time>
      </trkpt>
      <trkpt lat="59.9743886" lon="17.735939">
        <ele>29.9381</ele>
        <time>2012-04-16T18:33:02Z</time>
      </trkpt>
      <trkpt lat="59.9745309" lon="17.7365602">
        <ele>29.9381</ele>
        <time>2012-04-16T18:33:10Z</time>
      </trkpt>
      <trkpt lat="59.9747868" lon="17.737308">
        <ele>29.9381</ele>
        <time>2012-04-16T18:33:20Z</time>
      </trkpt>
      <trkpt lat="59.9748438" lon="17.7374442">
        <ele>29.9381</ele>
        <time>2012-04-16T18:33:22Z</time>
      </trkpt>
      <trkpt lat="59.97518" lon="17.7380457">
        <ele>29.9381</ele>
        <time>2012-04-16T18:33:32Z</time>
      </trkpt>
      <trkpt lat="59.9754815" lon="17.7385856">
        <ele>29.9381</ele>
        <time>2012-04-16T18:33:40Z</time>
      </trkpt>
      <trkpt lat="59.9757256" lon="17.7389855">
        <ele>29.9381</ele>
        <time>2012-04-16T18:33:47Z</time>
      </trkpt>
      <trkpt lat="59.9759399" lon="17.7393403">
        <ele>30.8995</ele>
        <time>2012-04-16T18:33:55Z</time>
      </trkpt>
      <trkpt lat="59.9761788" lon="17.7397294">
        <ele>33.3029</ele>
        <time>2012-04-16T18:34:04Z</time>
      </trkpt>
      <trkpt lat="59.9762294" lon="17.7397889">
        <ele>33.7834</ele>
        <time>2012-04-16T18:34:06Z</time>
      </trkpt>
      <trkpt lat="59.9764485" lon="17.7396905">
        <ele>34.7449</ele>
        <time>2012-04-16T18:34:13Z</time>
      </trkpt>
      <trkpt lat="59.9767352" lon="17.7394542">
        <ele>37.1481</ele>
        <time>2012-04-16T18:34:21Z</time>
      </trkpt>
      <trkpt lat="59.9769892" lon="17.7393567">
        <ele>38.5901</ele>
        <time>2012-04-16T18:34:28Z</time>
      </trkpt>
      <trkpt lat="59.9772929" lon="17.7391899">
        <ele>39.5513</ele>
        <time>2012-04-16T18:34:36Z</time>
      </trkpt>
      <trkpt lat="59.9775719" lon="17.7390703">
        <ele>40.5128</ele>
        <time>2012-04-16T18:34:44Z</time>
      </trkpt>
      <trkpt lat="59.9778042" lon="17.7390963">
        <ele>40.9934</ele>
        <time>2012-04-16T18:34:52Z</time>
      </trkpt>
      <trkpt lat="59.9781177" lon="17.7392537">
        <ele>41.9547</ele>
        <time>2012-04-16T18:35:02Z</time>
      </trkpt>
      <trkpt lat="59.9783396" lon="17.7393228">
        <ele>42.916</ele>
        <time>2012-04-16T18:35:08Z</time>
      </trkpt>
      <trkpt lat="59.9787024" lon="17.7393852">
        <ele>40.9934</ele>
        <time>2012-04-16T18:35:17Z</time>
      </trkpt>
      <trkpt lat="59.9787403" lon="17.7393881">
        <ele>40.5128</ele>
        <time>2012-04-16T18:35:18Z</time>
      </trkpt>
      <trkpt lat="59.9789144" lon="17.7394736">
        <ele>39.5513</ele>
        <time>2012-04-16T18:35:23Z</time>
      </trkpt>
      <trkpt lat="59.9789842" lon="17.7396774">
        <ele>39.0707</ele>
        <time>2012-04-16T18:35:27Z</time>
      </trkpt>
      <trkpt lat="59.9789729" lon="17.7397439">
        <ele>39.0707</ele>
        <time>2012-04-16T18:35:32Z</time>
      </trkpt>
    </trkseg>
  </trk>
</gpx>